Parkdale, Oregon
Current Conditions -  °F | °C
As of 7:39 PM on Tuesday 21 Oct 2014 (Local Time) from K4S2 Reporting Station
Overcast Overcast  
Wind Chill: 12°   Ceiling: 7500
Heat Index: 12°   Visibility: 10mi
Dew Point: 10°   Wind: 0mph
Humidity: 88%   Direction: NA
Pressure: 29.95"   Gusts: NA
Location:  45.3977°N, 121.59°W
Report Text: K4S2 220239Z AUTO 00000KT 10SM SCT060 OVC075 12/10 A2995 RMK AO2 SLP159 T01200100
Loading
Personal Weather Stations






























Interactive Weather Map
Tropical Storm Tracking
New forecast layout! Learn more

10-Day Weather Forecast

Advertisements
Track Severe Weather on mobile